Terminal Aerodrome Forecast
Issued by NWS Jacksonville, FL

Home | Current Version | Previous Version | Text Only | Print | Product List | Glossary On
Versions: 1 2 3 4 5 6 7 8 9 10 11 12 13 14 15 16 17 18 19
202
FTUS42 KJAX 312225 AAC
TAFGNV
TAF AMD
KGNV 312225Z 3122/0118 VRB06KT P6SM VCTS SCT050CB SCT120
      TEMPO 3122/3124 VRB20G30KT 2SM TSRA BKN035CB
     FM010200 VRB03KT P6SM FEW050 SCT100
     FM011400 28005KT P6SM SCT030=

USA.gov is the U.S. government's official web portal to all federal, state and local government web resources and services.